createdAt,value
2023-03-11T00:00:57.362Z,100170.66
2023-03-11T00:01:59.485Z,100176.00
2023-03-11T00:03:06.745Z,100183.84
2023-03-11T00:04:08.383Z,100176.09
2023-03-11T00:05:17.092Z,100177.75
2023-03-11T00:06:28.760Z,100188.38
2023-03-11T00:07:31.358Z,100183.97
2023-03-11T00:08:34.222Z,100194.47
2023-03-11T00:09:36.174Z,100182.09
2023-03-11T00:10:42.094Z,100191.66
2023-03-11T00:11:44.624Z,100189.75
2023-03-11T00:12:46.241Z,100193.31
2023-03-11T00:13:58.871Z,100191.53
2023-03-11T00:15:00.448Z,100192.38
2023-03-11T00:16:03.002Z,100188.00
2023-03-11T00:17:04.640Z,100187.13
2023-03-11T00:18:07.629Z,100193.22
2023-03-11T00:19:10.293Z,100191.66
2023-03-11T00:20:18.989Z,100197.81
2023-03-11T00:21:21.664Z,100193.41
2023-03-11T00:22:23.304Z,100202.13
2023-03-11T00:23:27.505Z,100199.41
2023-03-11T00:24:29.070Z,100196.78
2023-03-11T00:25:33.443Z,100214.28
2023-03-11T00:26:36.375Z,100209.22
2023-03-11T00:27:38.984Z,100217.09
2023-03-11T00:28:41.575Z,100216.38
2023-03-11T00:29:43.148Z,100209.53
2023-03-11T00:30:47.427Z,100210.47
2023-03-11T00:31:49.128Z,100218.31
2023-03-11T00:32:53.656Z,100209.59
2023-03-11T00:33:57.223Z,100218.31
2023-03-11T00:35:00.367Z,100219.16
2023-03-11T00:36:02.269Z,100224.41
2023-03-11T00:37:05.270Z,100216.56
2023-03-11T00:38:08.990Z,100217.47
2023-03-11T00:39:11.507Z,100221.78
2023-03-11T00:40:14.868Z,100217.47
2023-03-11T00:41:17.808Z,100227.97
2023-03-11T00:42:20.742Z,100218.31
2023-03-11T00:43:23.281Z,100218.31
2023-03-11T00:44:24.951Z,100220.09
2023-03-11T00:45:28.460Z,100226.13
2023-03-11T00:46:31.449Z,100220.88
2023-03-11T00:47:34.201Z,100228.63
2023-03-11T00:48:36.592Z,100223.31
2023-03-11T00:49:39.839Z,100225.81
2023-03-11T00:50:42.034Z,100224.03
2023-03-11T00:51:44.815Z,100227.41
2023-03-11T00:52:47.704Z,100231.72
2023-03-11T00:53:50.386Z,100235.19
2023-03-11T00:54:52.072Z,100228.19
2023-03-11T00:55:54.651Z,100232.47
2023-03-11T00:56:56.327Z,100231.66
2023-03-11T00:58:02.670Z,100232.47
2023-03-11T00:59:05.322Z,100230.78
2023-03-11T01:00:11.526Z,100230.69
2023-03-11T01:01:28.766Z,100239.41
2023-03-11T01:02:30.350Z,100237.72
2023-03-11T01:03:32.909Z,100233.41
2023-03-11T01:04:34.537Z,100235.94
2023-03-11T01:05:37.168Z,100236.91
2023-03-11T01:06:45.574Z,100244.75
2023-03-11T01:07:47.684Z,100242.94
2023-03-11T01:08:50.250Z,100246.53
2023-03-11T01:09:51.885Z,100243.81
2023-03-11T01:10:55.264Z,100247.38
2023-03-11T01:11:57.071Z,100254.41
2023-03-11T01:13:01.332Z,100258.69
2023-03-11T01:14:04.233Z,100247.38
2023-03-11T01:15:08.609Z,100251.59
2023-03-11T01:16:10.146Z,100248.97
2023-03-11T01:17:12.730Z,100241.84
2023-03-11T01:18:14.303Z,100250.56
2023-03-11T01:19:17.264Z,100253.09
2023-03-11T01:20:19.155Z,100246.91
2023-03-11T01:21:21.680Z,100243.34
2023-03-11T01:22:23.384Z,100246.91
2023-03-11T01:23:26.050Z,100248.66
2023-03-11T01:24:27.644Z,100249.53
2023-03-11T01:25:30.611Z,100249.53
2023-03-11T01:26:32.256Z,100251.22
2023-03-11T01:27:34.778Z,100251.22
2023-03-11T01:28:38.630Z,100248.59
2023-03-11T01:29:40.187Z,100251.22
2023-03-11T01:30:43.725Z,100260.00
2023-03-11T01:31:45.332Z,100255.63
2023-03-11T01:32:47.923Z,100259.16
2023-03-11T01:33:49.475Z,100255.72
2023-03-11T01:34:52.031Z,100258.34
2023-03-11T01:35:53.656Z,100265.38
2023-03-11T01:36:56.190Z,100259.28
2023-03-11T01:37:59.841Z,100260.13
2023-03-11T01:39:01.408Z,100261.06
2023-03-11T01:40:04.709Z,100267.16
2023-03-11T01:41:06.468Z,100261.91
2023-03-11T01:42:08.982Z,100265.44
2023-03-11T01:43:41.581Z,100270.69
2023-03-11T01:44:43.213Z,100271.66
2023-03-11T01:46:08.627Z,100270.81
2023-03-11T01:47:37.061Z,100271.72
2023-03-11T01:48:40.046Z,100276.13
2023-03-11T01:49:42.062Z,100276.13
2023-03-11T01:50:47.627Z,100267.50
2023-03-11T01:51:52.060Z,100270.03
2023-03-11T01:52:54.820Z,100269.19
2023-03-11T01:53:59.564Z,100275.38
2023-03-11T01:55:02.126Z,100268.38
2023-03-11T01:56:05.663Z,100281.56
2023-03-11T01:57:13.152Z,100272.94
2023-03-11T01:58:17.938Z,100279.97
2023-03-11T01:59:26.218Z,100278.28
2023-03-11T02:00:28.242Z,100281.94
2023-03-11T02:01:33.074Z,100275.94
2023-03-11T02:02:36.917Z,100285.66
2023-03-11T02:03:41.628Z,100286.50
2023-03-11T02:04:43.281Z,100281.38
2023-03-11T02:05:46.851Z,100291.94
2023-03-11T02:06:49.605Z,100290.22
2023-03-11T02:07:54.621Z,100281.63
2023-03-11T02:08:56.257Z,100290.34
2023-03-11T02:09:58.774Z,100289.56
2023-03-11T02:11:02.491Z,100286.19
2023-03-11T02:12:09.839Z,100282.00
2023-03-11T02:13:12.144Z,100283.03
2023-03-11T02:14:14.884Z,100280.56
2023-03-11T02:15:18.253Z,100279.06
2023-03-11T02:16:21.080Z,100277.44
2023-03-11T02:17:22.835Z,100281.19
2023-03-11T02:18:25.482Z,100287.44
2023-03-11T02:19:36.726Z,100281.38
2023-03-11T02:20:47.079Z,100291.19
2023-03-11T02:21:49.823Z,100284.44
2023-03-11T02:22:56.997Z,100287.97
2023-03-11T02:24:08.980Z,100282.91
2023-03-11T02:25:22.028Z,100284.78
2023-03-11T02:26:30.672Z,100284.97
2023-03-11T02:27:38.055Z,100289.53
2023-03-11T02:28:40.770Z,100283.50
2023-03-11T02:29:45.759Z,100285.47
2023-03-11T02:30:48.418Z,100282.09
2023-03-11T02:31:50.974Z,100290.13
2023-03-11T02:32:53.503Z,100285.75
2023-03-11T02:33:57.536Z,100284.16
2023-03-11T02:34:59.201Z,100287.69
2023-03-11T02:36:01.876Z,100289.56
2023-03-11T02:37:06.022Z,100284.41
2023-03-11T02:38:08.560Z,100289.69
2023-03-11T02:39:10.402Z,100293.28
2023-03-11T02:40:36.576Z,100289.88
2023-03-11T02:41:41.377Z,100293.44
2023-03-11T02:42:44.288Z,100294.38
2023-03-11T02:43:47.961Z,100287.53
2023-03-11T02:44:56.607Z,100290.22
2023-03-11T02:45:59.761Z,100289.47
2023-03-11T02:47:01.879Z,100288.72
2023-03-11T02:48:05.185Z,100293.00
2023-03-11T02:49:07.671Z,100293.97
2023-03-11T02:50:13.694Z,100291.34
2023-03-11T02:51:15.340Z,100296.66
2023-03-11T02:52:18.676Z,100291.59
2023-03-11T02:53:20.524Z,100290.00
2023-03-11T02:54:30.915Z,100290.91
2023-03-11T02:55:33.197Z,100297.06
2023-03-11T02:56:35.747Z,100296.31
2023-03-11T02:57:37.430Z,100298.19
2023-03-11T02:58:41.460Z,100292.97
2023-03-11T02:59:43.042Z,100296.50
2023-03-11T03:00:45.678Z,100296.50
2023-03-11T03:01:50.195Z,100299.19
2023-03-11T03:02:54.001Z,100294.78
2023-03-11T03:03:55.699Z,100300.94
2023-03-11T03:04:58.217Z,100298.34
2023-03-11T03:05:59.799Z,100301.91
2023-03-11T03:07:02.279Z,100299.28
2023-03-11T03:08:04.120Z,100295.81
2023-03-11T03:09:06.688Z,100306.28
2023-03-11T03:10:09.708Z,100307.13
2023-03-11T03:11:12.222Z,100304.53
2023-03-11T03:12:13.771Z,100305.44
2023-03-11T03:13:16.310Z,100304.59
2023-03-11T03:14:19.246Z,100307.31
2023-03-11T03:15:21.749Z,100305.59
2023-03-11T03:16:24.558Z,100305.59
2023-03-11T03:17:26.221Z,100307.38
2023-03-11T03:18:28.939Z,100310.00
2023-03-11T03:19:30.525Z,100306.53
2023-03-11T03:20:33.124Z,100311.00
2023-03-11T03:21:34.666Z,100316.25
2023-03-11T03:22:37.166Z,100321.56
2023-03-11T03:23:39.680Z,100307.66
2023-03-11T03:24:41.199Z,100311.19
2023-03-11T03:25:44.478Z,100312.94
2023-03-11T03:26:46.054Z,100313.88
2023-03-11T03:27:48.644Z,100319.19
2023-03-11T03:28:50.436Z,100318.25
2023-03-11T03:29:54.560Z,100323.50
2023-03-11T03:30:56.453Z,100319.19
2023-03-11T03:31:59.115Z,100318.25
2023-03-11T03:33:00.820Z,100314.88
2023-03-11T03:34:03.348Z,100318.41
2023-03-11T03:35:06.225Z,100317.50
2023-03-11T03:36:10.770Z,100314.97
2023-03-11T03:37:12.357Z,100320.22
2023-03-11T03:38:15.127Z,100322.00
2023-03-11T03:39:18.589Z,100322.91
2023-03-11T03:40:21.081Z,100328.13
2023-03-11T03:41:23.090Z,100329.06
2023-03-11T03:42:25.994Z,100330.75
2023-03-11T03:43:28.746Z,100337.75
2023-03-11T03:44:30.700Z,100346.47
2023-03-11T03:45:34.576Z,100334.28
2023-03-11T03:46:36.205Z,100337.69
2023-03-11T03:47:38.793Z,100336.00
2023-03-11T03:48:40.341Z,100340.38
2023-03-11T03:49:42.868Z,100343.09
2023-03-11T03:50:44.374Z,100341.47
2023-03-11T03:51:46.910Z,100339.69
2023-03-11T03:52:52.168Z,100345.78
2023-03-11T03:53:54.633Z,100344.06
2023-03-11T03:54:56.215Z,100343.16
2023-03-11T03:55:58.748Z,100341.47
2023-03-11T03:57:00.374Z,100350.16
2023-03-11T03:58:02.862Z,100352.88
2023-03-11T03:59:04.433Z,100357.25
2023-03-11T04:00:09.905Z,100356.41
2023-03-11T04:01:26.037Z,100366.03
2023-03-11T04:02:28.807Z,100360.88
2023-03-11T04:03:31.381Z,100361.81
2023-03-11T04:04:34.220Z,100360.97
2023-03-11T04:05:36.534Z,100369.72
2023-03-11T04:06:39.052Z,100364.50
2023-03-11T04:07:40.905Z,100365.34
2023-03-11T04:08:43.699Z,100365.44
2023-03-11T04:09:45.347Z,100381.03
2023-03-11T04:10:57.605Z,100377.56
2023-03-11T04:11:59.894Z,100380.19
2023-03-11T04:13:02.566Z,100370.66
2023-03-11T04:14:05.002Z,100379.44
2023-03-11T04:15:08.734Z,100374.28
2023-03-11T04:16:16.045Z,100377.72
2023-03-11T04:17:19.973Z,100380.34
2023-03-11T04:18:22.787Z,100374.28
2023-03-11T04:19:25.936Z,100385.59
2023-03-11T04:20:27.463Z,100386.44
2023-03-11T04:21:29.932Z,100390.81
2023-03-11T04:22:31.546Z,100380.44
2023-03-11T04:23:34.575Z,100386.53
2023-03-11T04:24:36.202Z,100391.75
2023-03-11T04:25:38.804Z,100386.53
2023-03-11T04:26:40.377Z,100394.38
2023-03-11T04:27:45.917Z,100381.38
2023-03-11T04:28:47.495Z,100390.97
2023-03-11T04:29:50.005Z,100384.06
2023-03-11T04:30:51.590Z,100382.38
2023-03-11T04:31:54.383Z,100386.75
2023-03-11T04:32:57.258Z,100399.00
2023-03-11T04:33:59.762Z,100391.13
2023-03-11T04:35:01.311Z,100393.00
2023-03-11T04:36:06.979Z,100389.44
2023-03-11T04:37:08.813Z,100386.91
2023-03-11T04:38:11.471Z,100393.00
2023-03-11T04:39:14.635Z,100396.53
2023-03-11T04:40:17.997Z,100394.00
2023-03-11T04:41:19.603Z,100397.44
2023-03-11T04:42:22.814Z,100398.47
2023-03-11T04:43:24.322Z,100398.56
2023-03-11T04:44:27.168Z,100401.22
2023-03-11T04:45:28.734Z,100408.22
2023-03-11T04:46:31.328Z,100412.56
2023-03-11T04:47:33.397Z,100404.75
2023-03-11T04:48:37.309Z,100403.94
2023-03-11T04:49:38.846Z,100409.19
2023-03-11T04:50:41.531Z,100411.78
2023-03-11T04:51:43.523Z,100416.25
2023-03-11T04:52:46.451Z,100412.72
2023-03-11T04:53:47.971Z,100409.31
2023-03-11T04:54:50.500Z,100413.78
2023-03-11T04:55:53.715Z,100411.16
2023-03-11T04:56:56.219Z,100404.22
2023-03-11T04:57:57.780Z,100414.69
2023-03-11T04:59:00.445Z,100413.88
2023-03-11T05:00:02.158Z,100420.88
2023-03-11T05:01:11.431Z,100413.78
2023-03-11T05:02:13.152Z,100412.94
2023-03-11T05:03:16.158Z,100416.41
2023-03-11T05:04:19.111Z,100423.34
2023-03-11T05:05:22.067Z,100417.25
2023-03-11T05:06:24.304Z,100414.53
2023-03-11T05:07:26.818Z,100422.38
2023-03-11T05:08:28.459Z,100424.09
2023-03-11T05:09:30.940Z,100421.41
2023-03-11T05:10:32.743Z,100420.56
2023-03-11T05:11:37.081Z,100419.66
2023-03-11T05:12:38.610Z,100429.09
2023-03-11T05:13:41.142Z,100424.72
2023-03-11T05:14:42.697Z,100429.00
2023-03-11T05:15:45.955Z,100422.84
2023-03-11T05:16:47.652Z,100430.53
2023-03-11T05:17:50.204Z,100431.31
2023-03-11T05:18:51.730Z,100425.16
2023-03-11T05:19:55.562Z,100420.72
2023-03-11T05:21:07.116Z,100430.16
2023-03-11T05:22:09.678Z,100433.63
2023-03-11T05:23:11.388Z,100428.16
2023-03-11T05:24:13.915Z,100428.84
2023-03-11T05:25:15.583Z,100430.53
2023-03-11T05:26:18.073Z,100431.28
2023-03-11T05:27:20.994Z,100435.59
2023-03-11T05:28:23.784Z,100428.59
2023-03-11T05:29:26.049Z,100438.97
2023-03-11T05:30:28.570Z,100433.75
2023-03-11T05:31:30.135Z,100441.53
2023-03-11T05:32:32.755Z,100441.53
2023-03-11T05:33:35.729Z,100438.81
2023-03-11T05:34:38.590Z,100437.16
2023-03-11T05:35:45.431Z,100439.59
2023-03-11T05:36:48.081Z,100443.91
2023-03-11T05:37:49.740Z,100440.34
2023-03-11T05:38:53.220Z,100444.69
2023-03-11T05:39:55.053Z,100443.75
2023-03-11T05:40:57.521Z,100436.66
2023-03-11T05:41:59.061Z,100444.53
2023-03-11T05:43:01.602Z,100439.19
2023-03-11T05:44:03.970Z,100447.81
2023-03-11T05:45:07.094Z,100447.81
2023-03-11T05:46:08.819Z,100439.88
2023-03-11T05:47:11.607Z,100448.50
2023-03-11T05:48:17.105Z,100444.94
2023-03-11T05:49:21.236Z,100442.25
2023-03-11T05:50:22.791Z,100447.50
2023-03-11T05:51:27.002Z,100450.06
2023-03-11T05:52:30.464Z,100449.19
2023-03-11T05:53:32.973Z,100443.13
2023-03-11T05:54:34.602Z,100451.88
2023-03-11T05:55:37.103Z,100452.81
2023-03-11T05:56:38.613Z,100447.66
2023-03-11T05:57:41.404Z,100453.75
2023-03-11T05:58:42.939Z,100457.38
2023-03-11T05:59:45.632Z,100452.97
2023-03-11T06:00:47.211Z,100454.75
2023-03-11T06:01:52.594Z,100464.22
2023-03-11T06:02:55.207Z,100466.84
2023-03-11T06:03:56.798Z,100459.00
2023-03-11T06:04:59.488Z,100458.13
2023-03-11T06:06:01.051Z,100459.84
2023-03-11T06:07:05.317Z,100462.53
2023-03-11T06:08:06.999Z,100464.22
2023-03-11T06:09:13.119Z,100464.22
2023-03-11T06:10:14.782Z,100472.06
2023-03-11T06:11:18.227Z,100470.47
2023-03-11T06:12:19.773Z,100467.06
2023-03-11T06:13:22.289Z,100467.97
2023-03-11T06:14:23.874Z,100469.00
2023-03-11T06:15:26.593Z,100469.94
2023-03-11T06:16:28.270Z,100469.94
2023-03-11T06:17:30.831Z,100474.38
2023-03-11T06:18:32.390Z,100475.31
2023-03-11T06:19:34.949Z,100463.06
2023-03-11T06:20:37.736Z,100464.84
2023-03-11T06:21:40.418Z,100464.84
2023-03-11T06:22:43.843Z,100470.84
2023-03-11T06:23:46.958Z,100465.63
2023-03-11T06:24:48.568Z,100471.72
2023-03-11T06:25:56.573Z,100473.31
2023-03-11T06:26:58.301Z,100476.78
2023-03-11T06:28:00.830Z,100480.25
2023-03-11T06:29:02.385Z,100485.50
2023-03-11T06:30:05.757Z,100483.63
2023-03-11T06:31:08.231Z,100495.81
2023-03-11T06:32:10.916Z,100480.09
2023-03-11T06:33:14.315Z,100493.09
2023-03-11T06:34:16.883Z,100499.16
2023-03-11T06:35:18.963Z,100493.09
2023-03-11T06:36:21.802Z,100488.69
2023-03-11T06:37:25.502Z,100495.63
2023-03-11T06:38:28.561Z,100497.31
2023-03-11T06:39:31.065Z,100504.25
2023-03-11T06:40:33.385Z,100495.47
2023-03-11T06:41:36.410Z,100495.31
2023-03-11T06:42:37.978Z,100503.94
2023-03-11T06:43:41.180Z,100507.34
2023-03-11T06:44:42.716Z,100506.31
2023-03-11T06:45:45.526Z,100507.16
2023-03-11T06:46:47.120Z,100508.84
2023-03-11T06:47:49.700Z,100510.53
2023-03-11T06:49:01.772Z,100511.41
2023-03-11T06:50:06.574Z,100507.16
2023-03-11T06:51:10.891Z,100515.03
2023-03-11T06:52:13.507Z,100509.00
2023-03-11T06:53:21.422Z,100517.03
2023-03-11T06:55:20.449Z,100517.19
2023-03-11T06:56:25.467Z,100519.97
2023-03-11T06:57:27.708Z,100526.28
2023-03-11T06:58:31.170Z,100520.28
2023-03-11T06:59:33.713Z,100537.00
2023-03-11T07:00:35.289Z,100540.53
2023-03-11T07:01:40.239Z,100530.91
2023-03-11T07:02:41.934Z,100539.69
2023-03-11T07:03:44.818Z,100533.59
2023-03-11T07:04:49.470Z,100549.28
2023-03-11T07:05:52.694Z,100557.16
2023-03-11T07:06:55.193Z,100558.94
2023-03-11T07:07:56.844Z,100560.63
2023-03-11T07:08:59.381Z,100556.22
2023-03-11T07:10:01.238Z,100553.56
2023-03-11T07:11:05.566Z,100558.63
2023-03-11T07:12:10.289Z,100552.38
2023-03-11T07:13:12.009Z,100554.91
2023-03-11T07:14:14.870Z,100553.16
2023-03-11T07:15:16.656Z,100563.47
2023-03-11T07:16:21.508Z,100559.88
2023-03-11T07:17:24.344Z,100564.16
2023-03-11T07:18:25.900Z,100564.94
2023-03-11T07:19:28.768Z,100566.63
2023-03-11T07:20:30.539Z,100565.63
2023-03-11T07:21:33.866Z,100565.53
2023-03-11T07:22:35.729Z,100569.78
2023-03-11T07:23:38.237Z,100570.63
2023-03-11T07:24:39.740Z,100567.09
2023-03-11T07:25:47.216Z,100580.09
2023-03-11T07:26:48.816Z,100581.78
2023-03-11T07:27:52.975Z,100579.09
2023-03-11T07:28:56.540Z,100586.88
2023-03-11T07:29:58.121Z,100577.25
2023-03-11T07:31:01.199Z,100585.09
2023-03-11T07:32:03.592Z,100583.25
2023-03-11T07:33:06.305Z,100586.66
2023-03-11T07:34:11.257Z,100585.69
2023-03-11T07:35:14.139Z,100593.50
2023-03-11T07:36:19.969Z,100596.97
2023-03-11T07:37:21.696Z,100589.88
2023-03-11T07:38:24.217Z,100596.72
2023-03-11T07:39:25.968Z,100605.41
2023-03-11T07:40:28.506Z,100607.13
2023-03-11T07:41:32.117Z,100597.50
2023-03-11T07:42:34.728Z,100605.25
2023-03-11T07:43:39.164Z,100605.25
2023-03-11T07:44:40.772Z,100613.06
2023-03-11T07:45:43.380Z,100605.09
2023-03-11T07:46:45.357Z,100616.44
2023-03-11T07:47:47.897Z,100613.75
2023-03-11T07:48:51.397Z,100614.59
2023-03-11T07:49:56.298Z,100613.66
2023-03-11T07:51:03.505Z,100613.66
2023-03-11T07:52:07.249Z,100627.59
2023-03-11T07:53:08.805Z,100620.59
2023-03-11T07:54:12.556Z,100617.91
2023-03-11T07:55:14.757Z,100612.66
2023-03-11T07:56:18.724Z,100618.72
2023-03-11T07:57:20.285Z,100619.53
2023-03-11T07:58:23.580Z,100620.38
2023-03-11T07:59:26.619Z,100629.91
2023-03-11T08:00:29.266Z,100623.84
2023-03-11T08:01:41.554Z,100626.38
2023-03-11T08:02:43.535Z,100626.38
2023-03-11T08:03:47.905Z,100630.69
2023-03-11T08:04:49.542Z,100632.38
2023-03-11T08:05:52.238Z,100634.06
2023-03-11T08:07:04.920Z,100634.84
2023-03-11T08:08:06.568Z,100630.38
2023-03-11T08:09:10.323Z,100630.22
2023-03-11T08:10:12.584Z,100635.28
2023-03-11T08:11:16.637Z,100628.19
2023-03-11T08:12:19.174Z,100628.97
2023-03-11T08:13:21.125Z,100622.81
2023-03-11T08:14:23.708Z,100631.44
2023-03-11T08:15:27.749Z,100633.03
2023-03-11T08:16:29.569Z,100632.97
2023-03-11T08:17:32.126Z,100626.72
2023-03-11T08:18:34.457Z,100637.94
2023-03-11T08:19:37.167Z,100638.81
2023-03-11T08:20:38.846Z,100633.50
2023-03-11T08:21:41.653Z,100642.97
2023-03-11T08:22:55.677Z,100641.19
2023-03-11T08:24:02.221Z,100635.00
2023-03-11T08:25:04.465Z,100635.09
2023-03-11T08:26:09.187Z,100639.44
2023-03-11T08:27:12.266Z,100636.81
2023-03-11T08:28:14.999Z,100641.09
2023-03-11T08:29:16.577Z,100638.31
2023-03-11T08:30:19.864Z,100634.72
2023-03-11T08:31:25.828Z,100637.31
2023-03-11T08:32:31.425Z,100640.63
2023-03-11T08:33:34.014Z,100638.75
2023-03-11T08:34:36.776Z,100637.00
2023-03-11T08:35:38.715Z,100643.84
2023-03-11T08:36:41.632Z,100639.34
2023-03-11T08:37:43.426Z,100644.53
2023-03-11T08:38:46.355Z,100651.47
2023-03-11T08:39:48.908Z,100647.00
2023-03-11T08:40:50.618Z,100650.47
2023-03-11T08:41:53.145Z,100651.38
2023-03-11T08:42:56.530Z,100650.53
2023-03-11T08:43:58.339Z,100648.75
2023-03-11T08:45:01.075Z,100654.00
2023-03-11T08:46:04.423Z,100653.84
2023-03-11T08:47:08.556Z,100644.19
2023-03-11T08:48:11.735Z,100644.13
2023-03-11T08:49:14.296Z,100645.91
2023-03-11T08:50:24.200Z,100653.66
2023-03-11T08:51:26.635Z,100652.00
2023-03-11T08:52:29.249Z,100650.97
2023-03-11T08:53:30.895Z,100652.59
2023-03-11T08:54:33.729Z,100652.50
2023-03-11T08:55:35.569Z,100648.88
2023-03-11T08:56:38.142Z,100654.88
2023-03-11T08:57:41.126Z,100654.69
2023-03-11T08:58:42.890Z,100648.53
2023-03-11T08:59:45.809Z,100647.63
2023-03-11T09:00:47.643Z,100649.28
2023-03-11T09:01:50.887Z,100652.75
2023-03-11T09:02:53.897Z,100657.16
2023-03-11T09:03:56.744Z,100657.94
2023-03-11T09:04:58.504Z,100656.91
2023-03-11T09:06:01.892Z,100650.66
2023-03-11T09:07:04.666Z,100659.31
2023-03-11T09:08:07.255Z,100660.81
2023-03-11T09:09:11.500Z,100658.13
2023-03-11T09:10:16.079Z,100661.50
2023-03-11T09:11:19.564Z,100653.53
2023-03-11T09:12:21.271Z,100658.63
2023-03-11T09:13:24.327Z,100658.44
2023-03-11T09:14:28.872Z,100652.09
2023-03-11T09:15:31.597Z,100657.19
2023-03-11T09:16:34.442Z,100655.25
2023-03-11T09:17:37.483Z,100653.38
2023-03-11T09:18:40.473Z,100649.72
2023-03-11T09:19:43.056Z,100657.41
2023-03-11T09:20:46.051Z,100657.25
2023-03-11T09:21:49.035Z,100653.50
2023-03-11T09:22:50.936Z,100652.50
2023-03-11T09:23:53.480Z,100651.56
2023-03-11T09:24:56.823Z,100657.50
2023-03-11T09:25:59.332Z,100651.13
2023-03-11T09:27:01.117Z,100654.34
2023-03-11T09:28:04.523Z,100652.31
2023-03-11T09:29:07.089Z,100653.66
2023-03-11T09:30:12.412Z,100648.91
2023-03-11T09:31:16.432Z,100653.88
2023-03-11T09:32:18.143Z,100655.28
2023-03-11T09:33:20.738Z,100660.28
2023-03-11T09:34:24.081Z,100661.50
2023-03-11T09:35:26.720Z,100663.69
2023-03-11T09:36:29.415Z,100661.47
2023-03-11T09:37:31.124Z,100662.84
2023-03-11T09:38:33.789Z,100656.38
2023-03-11T09:39:35.341Z,100655.91
2023-03-11T09:40:52.446Z,100662.28
2023-03-11T09:41:59.240Z,100662.88
2023-03-11T09:43:12.524Z,100660.78
2023-03-11T09:44:19.956Z,100662.31
2023-03-11T09:45:26.183Z,100664.84
2023-03-11T09:46:49.032Z,100662.03
2023-03-11T09:48:07.429Z,100663.03
2023-03-11T09:49:19.305Z,100664.19
2023-03-11T09:50:28.943Z,100670.66
2023-03-11T09:51:36.095Z,100671.13
2023-03-11T09:52:44.110Z,100667.06
2023-03-11T09:53:51.344Z,100674.31
2023-03-11T09:54:58.033Z,100678.06
2023-03-11T09:56:03.565Z,100667.75
2023-03-11T09:57:07.971Z,100674.66
2023-03-11T09:58:13.484Z,100670.25
2023-03-11T09:59:20.501Z,100667.56
2023-03-11T10:00:24.627Z,100671.97
2023-03-11T10:01:46.328Z,100677.28
2023-03-11T10:02:49.246Z,100682.47
2023-03-11T10:03:54.487Z,100685.00
2023-03-11T10:04:59.708Z,100683.03
2023-03-11T10:06:16.153Z,100686.25
2023-03-11T10:07:28.165Z,100681.66
2023-03-11T10:08:39.032Z,100686.53
2023-03-11T10:09:49.024Z,100689.84
2023-03-11T10:11:00.121Z,100688.81
2023-03-11T10:12:18.070Z,100692.19
2023-03-11T10:13:30.322Z,100697.25
2023-03-11T10:14:44.440Z,100686.56
2023-03-11T10:15:53.570Z,100689.94
2023-03-11T10:17:02.382Z,100691.44
2023-03-11T10:18:26.545Z,100691.16
2023-03-11T10:19:40.704Z,100696.34
2023-03-11T10:20:49.714Z,100698.03
2023-03-11T10:22:03.331Z,100696.16
2023-03-11T10:23:16.131Z,100697.00
2023-03-11T10:24:36.757Z,100704.03
2023-03-11T10:25:50.825Z,100698.19
2023-03-11T10:26:58.837Z,100701.97
2023-03-11T10:28:05.473Z,100696.91
2023-03-11T10:29:15.172Z,100699.63
2023-03-11T10:30:26.223Z,100696.25
2023-03-11T10:31:32.021Z,100702.34
2023-03-11T10:32:41.864Z,100703.19
2023-03-11T10:33:48.632Z,100709.22
2023-03-11T10:34:54.815Z,100704.63
2023-03-11T10:36:03.952Z,100707.91
2023-03-11T10:37:14.236Z,100708.56
2023-03-11T10:38:20.749Z,100707.41
2023-03-11T10:39:23.425Z,100702.81
2023-03-11T10:40:31.273Z,100715.50
2023-03-11T10:41:44.422Z,100707.34
2023-03-11T10:42:47.020Z,100707.81
2023-03-11T10:43:53.655Z,100712.69
2023-03-11T10:44:56.231Z,100702.69
2023-03-11T10:46:00.205Z,100708.53
2023-03-11T10:47:02.637Z,100704.88
2023-03-11T10:48:10.894Z,100703.81
2023-03-11T10:49:14.798Z,100706.44
2023-03-11T10:50:20.431Z,100711.72
2023-03-11T10:51:24.867Z,100710.78
2023-03-11T10:52:29.044Z,100709.09
2023-03-11T10:53:32.359Z,100705.72
2023-03-11T10:54:37.810Z,100702.31
2023-03-11T10:55:48.420Z,100702.31
2023-03-11T10:56:54.531Z,100703.94
2023-03-11T10:58:06.581Z,100700.25
2023-03-11T10:59:25.224Z,100695.72
2023-03-11T11:00:30.125Z,100699.19
2023-03-11T11:01:34.513Z,100706.16
2023-03-11T11:02:43.253Z,100699.84
2023-03-11T11:03:49.052Z,100704.19
2023-03-11T11:05:05.575Z,100696.28
2023-03-11T11:06:22.239Z,100699.66
2023-03-11T11:07:33.350Z,100703.22
2023-03-11T11:08:36.594Z,100699.94
2023-03-11T11:09:38.128Z,100703.63
2023-03-11T11:10:51.363Z,100710.00
2023-03-11T11:12:06.465Z,100701.47
2023-03-11T11:13:20.618Z,100702.41
2023-03-11T11:14:23.817Z,100705.91
2023-03-11T11:15:28.454Z,100702.31
2023-03-11T11:16:31.216Z,100704.00
2023-03-11T11:17:34.271Z,100704.75
2023-03-11T11:18:43.599Z,100704.88
2023-03-11T11:19:57.915Z,100699.41
2023-03-11T11:21:04.462Z,100700.06
2023-03-11T11:22:06.484Z,100705.84
2023-03-11T11:23:27.211Z,100707.28
2023-03-11T11:24:30.795Z,100704.34
2023-03-11T11:25:35.757Z,100706.78
2023-03-11T11:26:37.338Z,100705.72
2023-03-11T11:27:56.634Z,100709.00
2023-03-11T11:29:09.129Z,100715.78
2023-03-11T11:30:16.572Z,100709.56
2023-03-11T11:31:25.133Z,100714.84
2023-03-11T11:32:27.077Z,100720.19
2023-03-11T11:33:31.226Z,100715.13
2023-03-11T11:34:34.830Z,100721.53
2023-03-11T11:35:51.500Z,100720.91
2023-03-11T11:36:53.293Z,100720.91
2023-03-11T11:38:01.992Z,100719.09
2023-03-11T11:39:16.828Z,100714.47
2023-03-11T11:40:31.337Z,100716.91
2023-03-11T11:41:36.445Z,100722.09
2023-03-11T11:42:41.003Z,100719.34
2023-03-11T11:43:50.203Z,100713.91
2023-03-11T11:44:56.764Z,100715.50
2023-03-11T11:46:06.036Z,100708.25
2023-03-11T11:47:15.784Z,100705.50
2023-03-11T11:48:22.045Z,100705.50
2023-03-11T11:49:27.413Z,100697.50
2023-03-11T11:50:35.378Z,100702.66
2023-03-11T11:51:41.455Z,100700.59
2023-03-11T11:52:48.276Z,100698.38
2023-03-11T11:53:57.541Z,100701.56
2023-03-11T11:55:03.912Z,100699.47
2023-03-11T11:56:06.700Z,100692.84
2023-03-11T11:57:11.910Z,100700.34
2023-03-11T11:58:14.445Z,100696.53
2023-03-11T11:59:18.837Z,100701.53
2023-03-11T12:00:25.241Z,100698.88
2023-03-11T12:01:42.129Z,100705.00
2023-03-11T12:02:59.130Z,100697.38
2023-03-11T12:04:20.026Z,100702.03
2023-03-11T12:05:27.848Z,100702.34
2023-03-11T12:06:35.316Z,100707.06
2023-03-11T12:07:56.337Z,100713.50
2023-03-11T12:09:08.330Z,100705.78
2023-03-11T12:10:28.294Z,100715.72
2023-03-11T12:11:39.331Z,100715.88
2023-03-11T12:12:52.773Z,100713.16
2023-03-11T12:14:06.799Z,100714.00
2023-03-11T12:15:15.075Z,100717.38
2023-03-11T12:16:29.032Z,100713.59
2023-03-11T12:17:33.541Z,100721.31